Al Rekayyat — V7QF3 — position and weather

sailwx.info

Track history (hours):
 
Tides and Currents Weather Stations Pressure Air Temp Water Temp Dewpoint Dewpoint Depression Visibility Wind Speed Wind Dir Waves Ship Positions

Al Rekayyat

Last reported at 2014-Dec-18 22:34 UTC. Time now 2014-Dec-18 23:05 UTC.
Position N 34°31' E 135°14'.

Length 315 m; draft 12 m.

Type: Ship (hazmat cat D). MMSI: 538003347.

Date/timePositionNaut miles runAvg speedWind from/ knotsBaromVisibWave heightAir tempDewpointWater temp
2014-Dec-18 22:34N 34°31' E 135°14'1211.9
2014-Dec-18 21:34N 34°22' E 135°04'1211.5
2014-Dec-18 20:34N 34°11' E 135°00'7 7.1
2014-Dec-18 19:34N 34°04' E 135°00'9 8.8
2014-Dec-18 18:31N 33°55' E 134°58'  
2014-Dec-11 10:24N 01°16' E 104°13'1213.6
2014-Dec-11 09:33N 01°14' E 104°02'1413.8
2014-Dec-11 08:32N 01°10' E 103°49'7514.6
2014-Dec-11 03:22N 01°41' E 102°40'1619.4
2014-Dec-11 02:33N 01°47' E 102°25'  
Track history (hours):
 
Tides and Currents Weather Stations Pressure Air Temp Water Temp Dewpoint Dewpoint Depression Visibility Wind Speed Wind Dir Waves Ship Positions

Al Rekayyat

Last reported at 2014-Dec-18 22:34 UTC. Time now 2014-Dec-18 23:05 UTC.
Position N 34°31' E 135°14'.

Length 315 m; draft 12 m.

Type: Ship (hazmat cat D). MMSI: 538003347.

Date/timePositionNaut miles runAvg speedWind from/ knotsBaromVisibWave heightAir tempDewpointWater temp
2014-Dec-18 22:34N 34°31' E 135°14'1211.9
2014-Dec-18 21:34N 34°22' E 135°04'1211.5
2014-Dec-18 20:34N 34°11' E 135°00'7 7.1
2014-Dec-18 19:34N 34°04' E 135°00'9 8.8
2014-Dec-18 18:31N 33°55' E 134°58'  
2014-Dec-11 10:24N 01°16' E 104°13'1213.6
2014-Dec-11 09:33N 01°14' E 104°02'1413.8
2014-Dec-11 08:32N 01°10' E 103°49'7514.6
2014-Dec-11 03:22N 01°41' E 102°40'1619.4
2014-Dec-11 02:33N 01°47' E 102°25'  

Dump ship's entire track history